sensor_id;sensor_type;location;lat;lon;timestamp;temperature;humidity
35635;DHT22;21757;43.610;1.440;2022-09-01T00:02:19;22.60;99.90
35635;DHT22;21757;43.610;1.440;2022-09-01T00:04:46;22.60;99.90
35635;DHT22;21757;43.610;1.440;2022-09-01T00:07:12;22.60;99.90
35635;DHT22;21757;43.610;1.440;2022-09-01T00:09:38;22.60;99.90
35635;DHT22;21757;43.610;1.440;2022-09-01T00:12:06;22.60;99.90
35635;DHT22;21757;43.610;1.440;2022-09-01T00:14:35;22.60;99.90
35635;DHT22;21757;43.610;1.440;2022-09-01T00:17:05;22.50;99.90
35635;DHT22;21757;43.610;1.440;2022-09-01T00:19:31;22.40;99.90
35635;DHT22;21757;43.610;1.440;2022-09-01T00:21:58;22.40;99.90
35635;DHT22;21757;43.610;1.440;2022-09-01T00:24:25;22.30;99.90
35635;DHT22;21757;43.610;1.440;2022-09-01T00:26:52;22.30;99.90
35635;DHT22;21757;43.610;1.440;2022-09-01T00:29:18;22.20;99.90
35635;DHT22;21757;43.610;1.440;2022-09-01T00:31:44;22.20;99.90
35635;DHT22;21757;43.610;1.440;2022-09-01T00:34:09;22.30;99.90
35635;DHT22;21757;43.610;1.440;2022-09-01T00:36:35;22.20;99.90
35635;DHT22;21757;43.610;1.440;2022-09-01T00:39:02;22.20;99.90
35635;DHT22;21757;43.610;1.440;2022-09-01T00:41:31;22.20;99.90
35635;DHT22;21757;43.610;1.440;2022-09-01T00:44:00;22.20;99.90
35635;DHT22;21757;43.610;1.440;2022-09-01T00:46:32;22.20;99.90
35635;DHT22;21757;43.610;1.440;2022-09-01T00:51:40;22.00;99.90
35635;DHT22;21757;43.610;1.440;2022-09-01T00:54:11;22.00;99.90
35635;DHT22;21757;43.610;1.440;2022-09-01T00:56:38;22.00;99.90
35635;DHT22;21757;43.610;1.440;2022-09-01T00:59:06;22.00;99.90
35635;DHT22;21757;43.610;1.440;2022-09-01T01:01:33;21.90;99.90
35635;DHT22;21757;43.610;1.440;2022-09-01T01:04:02;21.90;99.90
35635;DHT22;21757;43.610;1.440;2022-09-01T01:06:28;21.90;99.90
35635;DHT22;21757;43.610;1.440;2022-09-01T01:08:55;21.90;99.90
35635;DHT22;21757;43.610;1.440;2022-09-01T01:11:30;21.90;99.90
35635;DHT22;21757;43.610;1.440;2022-09-01T01:14:03;21.80;99.90
35635;DHT22;21757;43.610;1.440;2022-09-01T01:16:40;21.80;99.90
35635;DHT22;21757;43.610;1.440;2022-09-01T01:19:32;21.80;99.90
35635;DHT22;21757;43.610;1.440;2022-09-01T01:25:11;21.70;99.90
35635;DHT22;21757;43.610;1.440;2022-09-01T01:27:38;21.70;99.90
35635;DHT22;21757;43.610;1.440;2022-09-01T01:30:08;21.70;99.90
35635;DHT22;21757;43.610;1.440;2022-09-01T01:32:38;21.60;99.90
35635;DHT22;21757;43.610;1.440;2022-09-01T01:35:09;21.60;99.90
35635;DHT22;21757;43.610;1.440;2022-09-01T01:37:41;21.50;99.90
35635;DHT22;21757;43.610;1.440;2022-09-01T01:40:12;21.50;99.90
35635;DHT22;21757;43.610;1.440;2022-09-01T01:42:49;21.40;99.90
35635;DHT22;21757;43.610;1.440;2022-09-01T01:45:23;21.30;99.90
35635;DHT22;21757;43.610;1.440;2022-09-01T01:47:50;21.30;99.90
35635;DHT22;21757;43.610;1.440;2022-09-01T01:50:21;21.30;99.90
35635;DHT22;21757;43.610;1.440;2022-09-01T01:52:47;21.30;99.90
35635;DHT22;21757;43.610;1.440;2022-09-01T01:55:12;21.30;99.90
35635;DHT22;21757;43.610;1.440;2022-09-01T01:57:39;21.20;99.90
35635;DHT22;21757;43.610;1.440;2022-09-01T02:00:06;21.30;99.90
35635;DHT22;21757;43.610;1.440;2022-09-01T02:02:32;21.20;99.90
35635;DHT22;21757;43.610;1.440;2022-09-01T02:04:58;21.10;99.90
35635;DHT22;21757;43.610;1.440;2022-09-01T02:07:24;21.20;99.90
35635;DHT22;21757;43.610;1.440;2022-09-01T02:09:51;21.10;99.90
35635;DHT22;21757;43.610;1.440;2022-09-01T02:12:17;21.10;99.90
35635;DHT22;21757;43.610;1.440;2022-09-01T02:14:44;21.10;99.90
35635;DHT22;21757;43.610;1.440;2022-09-01T02:17:10;21.10;99.90
35635;DHT22;21757;43.610;1.440;2022-09-01T02:19:35;21.20;99.90
35635;DHT22;21757;43.610;1.440;2022-09-01T02:22:06;21.20;99.90
35635;DHT22;21757;43.610;1.440;2022-09-01T02:24:36;21.30;99.90
35635;DHT22;21757;43.610;1.440;2022-09-01T02:27:02;21.40;99.90
35635;DHT22;21757;43.610;1.440;2022-09-01T02:29:28;21.40;99.90
35635;DHT22;21757;43.610;1.440;2022-09-01T02:31:55;21.30;99.90
35635;DHT22;21757;43.610;1.440;2022-09-01T02:34:22;21.40;99.90
35635;DHT22;21757;43.610;1.440;2022-09-01T02:36:51;21.40;99.90
35635;DHT22;21757;43.610;1.440;2022-09-01T02:39:20;21.40;99.90
35635;DHT22;21757;43.610;1.440;2022-09-01T02:41:48;21.40;99.90
35635;DHT22;21757;43.610;1.440;2022-09-01T02:44:15;21.40;99.90
35635;DHT22;21757;43.610;1.440;2022-09-01T02:46:45;21.40;99.90
35635;DHT22;21757;43.610;1.440;2022-09-01T02:49:13;21.50;99.90
35635;DHT22;21757;43.610;1.440;2022-09-01T02:51:46;21.40;99.90
35635;DHT22;21757;43.610;1.440;2022-09-01T02:54:13;21.40;99.90
35635;DHT22;21757;43.610;1.440;2022-09-01T02:56:42;21.50;99.90
35635;DHT22;21757;43.610;1.440;2022-09-01T02:59:16;21.40;99.90
35635;DHT22;21757;43.610;1.440;2022-09-01T03:01:43;21.40;99.90
35635;DHT22;21757;43.610;1.440;2022-09-01T03:04:12;21.30;99.90
35635;DHT22;21757;43.610;1.440;2022-09-01T03:06:39;21.30;99.90
35635;DHT22;21757;43.610;1.440;2022-09-01T03:09:07;21.20;99.90
35635;DHT22;21757;43.610;1.440;2022-09-01T03:11:35;21.30;99.90
35635;DHT22;21757;43.610;1.440;2022-09-01T03:14:02;21.30;99.90
35635;DHT22;21757;43.610;1.440;2022-09-01T03:16:28;21.30;99.90
35635;DHT22;21757;43.610;1.440;2022-09-01T03:18:55;21.30;99.90
35635;DHT22;21757;43.610;1.440;2022-09-01T03:21:22;21.30;99.90
35635;DHT22;21757;43.610;1.440;2022-09-01T03:23:49;21.30;99.90
35635;DHT22;21757;43.610;1.440;2022-09-01T03:26:15;21.20;99.90
35635;DHT22;21757;43.610;1.440;2022-09-01T03:28:44;21.20;99.90
35635;DHT22;21757;43.610;1.440;2022-09-01T03:31:10;21.20;99.90
35635;DHT22;21757;43.610;1.440;2022-09-01T03:33:36;21.20;99.90
35635;DHT22;21757;43.610;1.440;2022-09-01T03:36:03;21.20;99.90
35635;DHT22;21757;43.610;1.440;2022-09-01T03:38:29;21.30;99.90
35635;DHT22;21757;43.610;1.440;2022-09-01T03:41:03;21.20;99.90
35635;DHT22;21757;43.610;1.440;2022-09-01T03:43:31;21.20;99.90
35635;DHT22;21757;43.610;1.440;2022-09-01T03:45:58;21.20;99.90
35635;DHT22;21757;43.610;1.440;2022-09-01T03:48:28;21.10;99.90
35635;DHT22;21757;43.610;1.440;2022-09-01T03:50:56;21.20;99.90
35635;DHT22;21757;43.610;1.440;2022-09-01T03:53:28;21.10;99.90
35635;DHT22;21757;43.610;1.440;2022-09-01T03:55:54;21.20;99.90
35635;DHT22;21757;43.610;1.440;2022-09-01T03:58:22;21.20;99.90
35635;DHT22;21757;43.610;1.440;2022-09-01T04:00:52;21.20;99.90
35635;DHT22;21757;43.610;1.440;2022-09-01T04:03:20;21.30;99.90
35635;DHT22;21757;43.610;1.440;2022-09-01T04:05:48;21.30;99.90
35635;DHT22;21757;43.610;1.440;2022-09-01T04:08:15;21.30;99.90
35635;DHT22;21757;43.610;1.440;2022-09-01T04:13:11;21.30;99.90
35635;DHT22;21757;43.610;1.440;2022-09-01T04:15:37;21.30;99.90
35635;DHT22;21757;43.610;1.440;2022-09-01T04:18:03;21.20;99.90
35635;DHT22;21757;43.610;1.440;2022-09-01T04:20:38;21.20;99.90
35635;DHT22;21757;43.610;1.440;2022-09-01T04:23:19;21.30;99.90
35635;DHT22;21757;43.610;1.440;2022-09-01T04:26:06;21.30;99.90
35635;DHT22;21757;43.610;1.440;2022-09-01T04:28:37;21.30;99.90
35635;DHT22;21757;43.610;1.440;2022-09-01T04:31:09;21.20;99.90
35635;DHT22;21757;43.610;1.440;2022-09-01T04:33:39;21.20;99.90
35635;DHT22;21757;43.610;1.440;2022-09-01T04:36:16;21.20;99.90
35635;DHT22;21757;43.610;1.440;2022-09-01T04:38:52;21.10;99.90
35635;DHT22;21757;43.610;1.440;2022-09-01T04:41:20;21.00;99.90
35635;DHT22;21757;43.610;1.440;2022-09-01T04:43:47;20.90;99.90
35635;DHT22;21757;43.610;1.440;2022-09-01T04:46:14;20.90;99.90
35635;DHT22;21757;43.610;1.440;2022-09-01T04:48:40;21.00;99.90
35635;DHT22;21757;43.610;1.440;2022-09-01T04:51:08;20.90;99.90
35635;DHT22;21757;43.610;1.440;2022-09-01T04:53:38;20.90;99.90
35635;DHT22;21757;43.610;1.440;2022-09-01T04:56:06;20.90;99.90
35635;DHT22;21757;43.610;1.440;2022-09-01T04:58:33;20.80;99.90
35635;DHT22;21757;43.610;1.440;2022-09-01T05:00:59;20.80;99.90
35635;DHT22;21757;43.610;1.440;2022-09-01T05:03:30;20.80;99.90
35635;DHT22;21757;43.610;1.440;2022-09-01T05:05:56;20.80;99.90
35635;DHT22;21757;43.610;1.440;2022-09-01T05:08:24;20.80;99.90
35635;DHT22;21757;43.610;1.440;2022-09-01T05:10:51;20.80;99.90
35635;DHT22;21757;43.610;1.440;2022-09-01T05:13:20;20.80;99.90
35635;DHT22;21757;43.610;1.440;2022-09-01T05:15:59;20.90;99.90
35635;DHT22;21757;43.610;1.440;2022-09-01T05:18:26;20.90;99.90
35635;DHT22;21757;43.610;1.440;2022-09-01T05:20:53;20.90;99.90
35635;DHT22;21757;43.610;1.440;2022-09-01T05:23:20;20.90;99.90
35635;DHT22;21757;43.610;1.440;2022-09-01T05:25:51;20.90;99.90
35635;DHT22;21757;43.610;1.440;2022-09-01T05:28:20;20.90;99.90
35635;DHT22;21757;43.610;1.440;2022-09-01T05:30:49;20.80;99.90
35635;DHT22;21757;43.610;1.440;2022-09-01T05:33:19;20.90;99.90
35635;DHT22;21757;43.610;1.440;2022-09-01T05:35:57;20.90;99.90
35635;DHT22;21757;43.610;1.440;2022-09-01T05:38:26;20.90;99.90
35635;DHT22;21757;43.610;1.440;2022-09-01T05:41:01;20.90;99.90
35635;DHT22;21757;43.610;1.440;2022-09-01T05:43:27;21.00;99.90
35635;DHT22;21757;43.610;1.440;2022-09-01T05:45:55;21.10;99.90
35635;DHT22;21757;43.610;1.440;2022-09-01T05:48:21;21.00;99.90
35635;DHT22;21757;43.610;1.440;2022-09-01T05:50:50;21.00;99.90
35635;DHT22;21757;43.610;1.440;2022-09-01T05:53:21;21.10;99.90
35635;DHT22;21757;43.610;1.440;2022-09-01T05:55:50;21.20;99.90
35635;DHT22;21757;43.610;1.440;2022-09-01T05:58:26;21.30;99.90
35635;DHT22;21757;43.610;1.440;2022-09-01T06:00:52;21.40;99.90
35635;DHT22;21757;43.610;1.440;2022-09-01T06:03:21;21.40;99.90
35635;DHT22;21757;43.610;1.440;2022-09-01T06:05:47;21.50;99.90
35635;DHT22;21757;43.610;1.440;2022-09-01T06:08:18;21.40;99.90
35635;DHT22;21757;43.610;1.440;2022-09-01T06:10:44;21.50;99.90
35635;DHT22;21757;43.610;1.440;2022-09-01T06:13:11;21.60;99.90
35635;DHT22;21757;43.610;1.440;2022-09-01T06:15:40;21.60;99.90
35635;DHT22;21757;43.610;1.440;2022-09-01T06:18:09;21.60;99.90
35635;DHT22;21757;43.610;1.440;2022-09-01T06:20:43;21.60;99.90
35635;DHT22;21757;43.610;1.440;2022-09-01T06:23:10;21.60;99.90
35635;DHT22;21757;43.610;1.440;2022-09-01T06:25:44;21.70;99.90
35635;DHT22;21757;43.610;1.440;2022-09-01T06:28:15;21.80;99.90
35635;DHT22;21757;43.610;1.440;2022-09-01T06:30:42;21.90;99.90
35635;DHT22;21757;43.610;1.440;2022-09-01T06:33:11;22.00;99.90
35635;DHT22;21757;43.610;1.440;2022-09-01T06:35:42;22.00;99.90
35635;DHT22;21757;43.610;1.440;2022-09-01T06:38:12;21.80;99.90
35635;DHT22;21757;43.610;1.440;2022-09-01T06:40:40;21.90;99.90
35635;DHT22;21757;43.610;1.440;2022-09-01T06:43:07;21.90;99.90
35635;DHT22;21757;43.610;1.440;2022-09-01T06:45:40;22.10;99.90
35635;DHT22;21757;43.610;1.440;2022-09-01T06:48:06;22.50;99.90
35635;DHT22;21757;43.610;1.440;2022-09-01T06:50:32;22.30;99.90
35635;DHT22;21757;43.610;1.440;2022-09-01T06:52:58;22.30;99.90
35635;DHT22;21757;43.610;1.440;2022-09-01T06:55:36;22.40;99.90
35635;DHT22;21757;43.610;1.440;2022-09-01T06:58:04;22.50;99.90
35635;DHT22;21757;43.610;1.440;2022-09-01T07:00:30;22.50;99.90
35635;DHT22;21757;43.610;1.440;2022-09-01T07:02:58;22.40;99.90
35635;DHT22;21757;43.610;1.440;2022-09-01T07:05:24;22.40;99.90
35635;DHT22;21757;43.610;1.440;2022-09-01T07:07:52;22.50;99.90
35635;DHT22;21757;43.610;1.440;2022-09-01T07:10:24;22.50;99.90
35635;DHT22;21757;43.610;1.440;2022-09-01T07:12:55;22.60;99.90
35635;DHT22;21757;43.610;1.440;2022-09-01T07:15:24;22.60;99.90
35635;DHT22;21757;43.610;1.440;2022-09-01T07:17:55;22.60;99.90
35635;DHT22;21757;43.610;1.440;2022-09-01T07:20:24;22.70;99.90
35635;DHT22;21757;43.610;1.440;2022-09-01T07:22:51;22.70;99.90
35635;DHT22;21757;43.610;1.440;2022-09-01T07:25:17;22.50;99.90
35635;DHT22;21757;43.610;1.440;2022-09-01T07:27:45;22.50;99.90
35635;DHT22;21757;43.610;1.440;2022-09-01T07:30:19;22.40;99.90
35635;DHT22;21757;43.610;1.440;2022-09-01T07:32:45;22.60;99.90
35635;DHT22;21757;43.610;1.440;2022-09-01T07:35:14;22.80;99.90
35635;DHT22;21757;43.610;1.440;2022-09-01T07:37:40;23.00;99.90
35635;DHT22;21757;43.610;1.440;2022-09-01T07:40:09;23.00;99.90
35635;DHT22;21757;43.610;1.440;2022-09-01T07:42:35;23.00;99.90
35635;DHT22;21757;43.610;1.440;2022-09-01T07:45:08;23.00;99.90
35635;DHT22;21757;43.610;1.440;2022-09-01T07:47:35;23.30;99.90
35635;DHT22;21757;43.610;1.440;2022-09-01T07:50:06;23.40;99.90
35635;DHT22;21757;43.610;1.440;2022-09-01T07:52:37;23.30;99.90
35635;DHT22;21757;43.610;1.440;2022-09-01T07:55:11;23.30;99.90
35635;DHT22;21757;43.610;1.440;2022-09-01T07:57:42;23.20;99.90
35635;DHT22;21757;43.610;1.440;2022-09-01T08:00:12;23.20;99.90
35635;DHT22;21757;43.610;1.440;2022-09-01T08:02:42;23.10;99.90
35635;DHT22;21757;43.610;1.440;2022-09-01T08:05:12;23.10;99.90
35635;DHT22;21757;43.610;1.440;2022-09-01T08:07:38;23.30;99.90
35635;DHT22;21757;43.610;1.440;2022-09-01T08:10:06;23.30;99.90
35635;DHT22;21757;43.610;1.440;2022-09-01T08:12:33;23.40;99.90
35635;DHT22;21757;43.610;1.440;2022-09-01T08:15:01;23.30;99.90
35635;DHT22;21757;43.610;1.440;2022-09-01T08:17:27;23.10;99.90
35635;DHT22;21757;43.610;1.440;2022-09-01T08:19:53;23.20;99.90
35635;DHT22;21757;43.610;1.440;2022-09-01T08:22:19;23.30;99.90
35635;DHT22;21757;43.610;1.440;2022-09-01T08:24:49;23.40;99.90
35635;DHT22;21757;43.610;1.440;2022-09-01T08:27:15;23.60;99.90
35635;DHT22;21757;43.610;1.440;2022-09-01T08:29:40;23.60;99.90
35635;DHT22;21757;43.610;1.440;2022-09-01T08:32:06;23.40;99.90
35635;DHT22;21757;43.610;1.440;2022-09-01T08:34:33;23.20;99.90
35635;DHT22;21757;43.610;1.440;2022-09-01T08:36:59;23.30;99.90
35635;DHT22;21757;43.610;1.440;2022-09-01T08:39:25;23.20;99.90
35635;DHT22;21757;43.610;1.440;2022-09-01T08:44:50;23.50;99.90
35635;DHT22;21757;43.610;1.440;2022-09-01T08:47:18;23.70;99.90
35635;DHT22;21757;43.610;1.440;2022-09-01T08:49:46;23.70;99.90
35635;DHT22;21757;43.610;1.440;2022-09-01T08:55:13;23.80;99.90
35635;DHT22;21757;43.610;1.440;2022-09-01T08:57:43;23.90;99.90
35635;DHT22;21757;43.610;1.440;2022-09-01T09:00:13;23.90;99.90
35635;DHT22;21757;43.610;1.440;2022-09-01T09:05:57;23.60;99.90
35635;DHT22;21757;43.610;1.440;2022-09-01T09:16:26;23.80;99.90
35635;DHT22;21757;43.610;1.440;2022-09-01T09:18:54;23.50;99.90
35635;DHT22;21757;43.610;1.440;2022-09-01T09:21:28;23.50;99.90
35635;DHT22;21757;43.610;1.440;2022-09-01T09:26:52;23.90;99.90
35635;DHT22;21757;43.610;1.440;2022-09-01T09:29:19;24.30;99.90
35635;DHT22;21757;43.610;1.440;2022-09-01T09:31:47;24.60;99.90
35635;DHT22;21757;43.610;1.440;2022-09-01T09:34:36;24.50;99.90
35635;DHT22;21757;43.610;1.440;2022-09-01T09:37:24;24.80;99.90
35635;DHT22;21757;43.610;1.440;2022-09-01T09:40:13;24.90;99.90
35635;DHT22;21757;43.610;1.440;2022-09-01T09:43:05;25.20;99.90
35635;DHT22;21757;43.610;1.440;2022-09-01T09:45:39;25.10;99.90
35635;DHT22;21757;43.610;1.440;2022-09-01T09:48:27;25.20;99.90
35635;DHT22;21757;43.610;1.440;2022-09-01T09:50:53;25.00;99.90
35635;DHT22;21757;43.610;1.440;2022-09-01T09:58:20;24.80;99.90
35635;DHT22;21757;43.610;1.440;2022-09-01T10:01:07;25.20;99.90
35635;DHT22;21757;43.610;1.440;2022-09-01T10:03:39;25.10;99.90
35635;DHT22;21757;43.610;1.440;2022-09-01T10:06:10;25.10;99.90
35635;DHT22;21757;43.610;1.440;2022-09-01T10:08:40;25.10;99.90
35635;DHT22;21757;43.610;1.440;2022-09-01T10:11:11;24.90;99.90
35635;DHT22;21757;43.610;1.440;2022-09-01T10:13:54;24.80;99.90
35635;DHT22;21757;43.610;1.440;2022-09-01T10:16:29;24.80;99.90
35635;DHT22;21757;43.610;1.440;2022-09-01T10:18:58;24.70;99.90
35635;DHT22;21757;43.610;1.440;2022-09-01T10:21:36;24.80;99.90
35635;DHT22;21757;43.610;1.440;2022-09-01T10:24:29;24.90;99.90
35635;DHT22;21757;43.610;1.440;2022-09-01T10:26:59;25.20;99.90
35635;DHT22;21757;43.610;1.440;2022-09-01T10:29:41;25.70;99.90
35635;DHT22;21757;43.610;1.440;2022-09-01T10:32:12;25.80;99.90
35635;DHT22;21757;43.610;1.440;2022-09-01T10:34:40;25.80;99.90
35635;DHT22;21757;43.610;1.440;2022-09-01T10:37:07;25.40;99.90
35635;DHT22;21757;43.610;1.440;2022-09-01T10:39:33;25.60;99.90
35635;DHT22;21757;43.610;1.440;2022-09-01T10:42:19;25.50;99.90
35635;DHT22;21757;43.610;1.440;2022-09-01T10:44:56;25.20;99.90
35635;DHT22;21757;43.610;1.440;2022-09-01T10:47:27;25.10;99.90
35635;DHT22;21757;43.610;1.440;2022-09-01T11:08:40;25.00;99.90
35635;DHT22;21757;43.610;1.440;2022-09-01T11:13:55;25.10;99.90
35635;DHT22;21757;43.610;1.440;2022-09-01T11:19:14;25.00;99.90
35635;DHT22;21757;43.610;1.440;2022-09-01T11:21:41;24.80;99.90
35635;DHT22;21757;43.610;1.440;2022-09-01T11:27:08;24.90;99.90
35635;DHT22;21757;43.610;1.440;2022-09-01T11:29:54;25.20;99.90
35635;DHT22;21757;43.610;1.440;2022-09-01T11:32:24;25.40;99.90
35635;DHT22;21757;43.610;1.440;2022-09-01T11:34:53;25.40;99.90
35635;DHT22;21757;43.610;1.440;2022-09-01T11:37:22;25.10;99.90
35635;DHT22;21757;43.610;1.440;2022-09-01T11:39:51;25.20;99.90
35635;DHT22;21757;43.610;1.440;2022-09-01T11:42:18;25.30;99.90
35635;DHT22;21757;43.610;1.440;2022-09-01T11:45:05;25.20;99.90
35635;DHT22;21757;43.610;1.440;2022-09-01T11:47:38;25.40;99.90
35635;DHT22;21757;43.610;1.440;2022-09-01T11:55:35;25.40;99.90
35635;DHT22;21757;43.610;1.440;2022-09-01T11:58:02;25.60;99.90
35635;DHT22;21757;43.610;1.440;2022-09-01T12:00:33;25.70;99.90
35635;DHT22;21757;43.610;1.440;2022-09-01T12:03:05;25.80;99.90
35635;DHT22;21757;43.610;1.440;2022-09-01T12:05:45;25.70;99.90
35635;DHT22;21757;43.610;1.440;2022-09-01T12:08:16;25.70;99.90
35635;DHT22;21757;43.610;1.440;2022-09-01T12:10:44;25.70;99.90
35635;DHT22;21757;43.610;1.440;2022-09-01T12:13:17;25.80;99.90
35635;DHT22;21757;43.610;1.440;2022-09-01T12:15:50;25.90;99.90
35635;DHT22;21757;43.610;1.440;2022-09-01T12:18:20;25.90;99.90
35635;DHT22;21757;43.610;1.440;2022-09-01T12:20:48;26.00;99.90
35635;DHT22;21757;43.610;1.440;2022-09-01T12:23:36;26.10;99.90
35635;DHT22;21757;43.610;1.440;2022-09-01T12:26:08;26.10;99.90
35635;DHT22;21757;43.610;1.440;2022-09-01T12:28:35;25.90;99.90
35635;DHT22;21757;43.610;1.440;2022-09-01T12:31:15;26.20;99.90
35635;DHT22;21757;43.610;1.440;2022-09-01T12:33:46;26.10;99.90
35635;DHT22;21757;43.610;1.440;2022-09-01T12:36:23;26.10;99.90
35635;DHT22;21757;43.610;1.440;2022-09-01T12:38:51;26.20;99.90
35635;DHT22;21757;43.610;1.440;2022-09-01T12:41:34;26.30;99.90
35635;DHT22;21757;43.610;1.440;2022-09-01T12:46:54;26.60;99.90
35635;DHT22;21757;43.610;1.440;2022-09-01T12:49:44;26.50;99.90
35635;DHT22;21757;43.610;1.440;2022-09-01T12:54:48;26.60;99.90
35635;DHT22;21757;43.610;1.440;2022-09-01T12:57:26;26.60;99.90
35635;DHT22;21757;43.610;1.440;2022-09-01T13:00:19;26.70;99.90
35635;DHT22;21757;43.610;1.440;2022-09-01T13:07:56;26.80;99.90
35635;DHT22;21757;43.610;1.440;2022-09-01T13:10:24;27.00;99.90
35635;DHT22;21757;43.610;1.440;2022-09-01T13:12:53;27.10;99.90
35635;DHT22;21757;43.610;1.440;2022-09-01T13:15:19;27.20;99.90
35635;DHT22;21757;43.610;1.440;2022-09-01T13:17:45;27.30;99.90
35635;DHT22;21757;43.610;1.440;2022-09-01T13:20:12;27.30;99.90
35635;DHT22;21757;43.610;1.440;2022-09-01T13:22:38;27.40;99.90
35635;DHT22;21757;43.610;1.440;2022-09-01T13:25:06;27.40;99.90
35635;DHT22;21757;43.610;1.440;2022-09-01T13:27:34;27.50;99.90
35635;DHT22;21757;43.610;1.440;2022-09-01T13:29:59;27.60;99.90
35635;DHT22;21757;43.610;1.440;2022-09-01T13:32:25;27.50;99.90
35635;DHT22;21757;43.610;1.440;2022-09-01T13:34:52;27.70;99.90
35635;DHT22;21757;43.610;1.440;2022-09-01T13:37:19;27.70;99.90
35635;DHT22;21757;43.610;1.440;2022-09-01T13:39:45;27.70;99.90
35635;DHT22;21757;43.610;1.440;2022-09-01T13:42:11;27.70;99.90
35635;DHT22;21757;43.610;1.440;2022-09-01T13:44:38;27.70;99.90
35635;DHT22;21757;43.610;1.440;2022-09-01T13:47:04;27.70;99.90
35635;DHT22;21757;43.610;1.440;2022-09-01T13:49:29;27.80;99.90
35635;DHT22;21757;43.610;1.440;2022-09-01T13:51:55;28.00;99.90
35635;DHT22;21757;43.610;1.440;2022-09-01T13:54:21;28.20;99.90
35635;DHT22;21757;43.610;1.440;2022-09-01T13:56:47;28.20;99.90
35635;DHT22;21757;43.610;1.440;2022-09-01T13:59:12;28.10;99.90
35635;DHT22;21757;43.610;1.440;2022-09-01T14:01:38;28.10;99.90
35635;DHT22;21757;43.610;1.440;2022-09-01T14:04:07;28.00;99.90
35635;DHT22;21757;43.610;1.440;2022-09-01T14:06:39;28.00;99.90
35635;DHT22;21757;43.610;1.440;2022-09-01T14:09:04;28.20;99.90
35635;DHT22;21757;43.610;1.440;2022-09-01T14:11:30;27.80;99.90
35635;DHT22;21757;43.610;1.440;2022-09-01T14:13:56;28.20;99.90
35635;DHT22;21757;43.610;1.440;2022-09-01T14:16:22;28.20;99.80
35635;DHT22;21757;43.610;1.440;2022-09-01T14:18:48;28.30;99.60
35635;DHT22;21757;43.610;1.440;2022-09-01T14:21:14;28.10;99.80
35635;DHT22;21757;43.610;1.440;2022-09-01T14:23:44;28.30;99.90
35635;DHT22;21757;43.610;1.440;2022-09-01T14:26:12;28.40;99.70
35635;DHT22;21757;43.610;1.440;2022-09-01T14:28:40;28.50;99.60
35635;DHT22;21757;43.610;1.440;2022-09-01T14:31:11;28.40;99.50
35635;DHT22;21757;43.610;1.440;2022-09-01T14:33:38;28.20;99.40
35635;DHT22;21757;43.610;1.440;2022-09-01T14:36:05;28.20;99.20
35635;DHT22;21757;43.610;1.440;2022-09-01T14:38:32;28.20;99.10
35635;DHT22;21757;43.610;1.440;2022-09-01T14:40:58;28.10;99.00
35635;DHT22;21757;43.610;1.440;2022-09-01T14:43:24;28.40;99.20
35635;DHT22;21757;43.610;1.440;2022-09-01T14:46:02;28.50;99.10
35635;DHT22;21757;43.610;1.440;2022-09-01T14:48:32;28.40;98.70
35635;DHT22;21757;43.610;1.440;2022-09-01T14:50:57;28.40;98.70
35635;DHT22;21757;43.610;1.440;2022-09-01T14:53:24;28.50;98.70
35635;DHT22;21757;43.610;1.440;2022-09-01T14:55:50;28.60;99.90
35635;DHT22;21757;43.610;1.440;2022-09-01T14:58:16;28.60;98.80
35635;DHT22;21757;43.610;1.440;2022-09-01T15:00:41;28.60;98.90
35635;DHT22;21757;43.610;1.440;2022-09-01T15:03:08;28.40;98.40
35635;DHT22;21757;43.610;1.440;2022-09-01T15:05:36;28.40;99.90
35635;DHT22;21757;43.610;1.440;2022-09-01T15:08:01;28.50;98.60
35635;DHT22;21757;43.610;1.440;2022-09-01T15:10:27;28.50;99.90
35635;DHT22;21757;43.610;1.440;2022-09-01T15:12:57;28.60;98.00
35635;DHT22;21757;43.610;1.440;2022-09-01T15:15:24;28.40;98.20
35635;DHT22;21757;43.610;1.440;2022-09-01T15:17:51;28.40;98.20
35635;DHT22;21757;43.610;1.440;2022-09-01T15:20:17;28.50;98.40
35635;DHT22;21757;43.610;1.440;2022-09-01T15:23:01;28.50;97.90
35635;DHT22;21757;43.610;1.440;2022-09-01T15:25:27;28.40;98.00
35635;DHT22;21757;43.610;1.440;2022-09-01T15:27:53;28.40;97.90
35635;DHT22;21757;43.610;1.440;2022-09-01T15:30:19;28.40;97.80
35635;DHT22;21757;43.610;1.440;2022-09-01T15:32:50;28.30;97.80
35635;DHT22;21757;43.610;1.440;2022-09-01T15:35:17;28.40;97.80
35635;DHT22;21757;43.610;1.440;2022-09-01T15:37:48;28.50;98.00
35635;DHT22;21757;43.610;1.440;2022-09-01T15:40:13;28.50;98.00
35635;DHT22;21757;43.610;1.440;2022-09-01T15:42:39;28.50;97.80
35635;DHT22;21757;43.610;1.440;2022-09-01T15:45:09;28.50;97.80
35635;DHT22;21757;43.610;1.440;2022-09-01T15:47:35;28.70;97.40
35635;DHT22;21757;43.610;1.440;2022-09-01T15:50:07;28.70;97.60
35635;DHT22;21757;43.610;1.440;2022-09-01T15:52:35;28.80;97.70
35635;DHT22;21757;43.610;1.440;2022-09-01T15:55:12;28.80;97.40
35635;DHT22;21757;43.610;1.440;2022-09-01T15:57:37;28.60;97.40
35635;DHT22;21757;43.610;1.440;2022-09-01T16:00:04;28.50;97.00
35635;DHT22;21757;43.610;1.440;2022-09-01T16:02:30;28.40;97.10
35635;DHT22;21757;43.610;1.440;2022-09-01T16:04:56;28.50;97.00
35635;DHT22;21757;43.610;1.440;2022-09-01T16:07:21;28.60;97.10
35635;DHT22;21757;43.610;1.440;2022-09-01T16:09:47;28.60;97.00
35635;DHT22;21757;43.610;1.440;2022-09-01T16:12:13;28.50;97.10
35635;DHT22;21757;43.610;1.440;2022-09-01T16:14:39;28.30;96.70
35635;DHT22;21757;43.610;1.440;2022-09-01T16:17:13;28.30;96.60
35635;DHT22;21757;43.610;1.440;2022-09-01T16:20:03;28.20;96.70
35635;DHT22;21757;43.610;1.440;2022-09-01T16:22:35;28.40;96.70
35635;DHT22;21757;43.610;1.440;2022-09-01T16:25:13;28.60;96.60
35635;DHT22;21757;43.610;1.440;2022-09-01T16:27:42;28.50;96.20
35635;DHT22;21757;43.610;1.440;2022-09-01T16:30:14;28.60;96.10
35635;DHT22;21757;43.610;1.440;2022-09-01T16:32:44;28.70;96.00
35635;DHT22;21757;43.610;1.440;2022-09-01T16:35:10;28.70;96.10
35635;DHT22;21757;43.610;1.440;2022-09-01T16:38:08;28.70;95.90
35635;DHT22;21757;43.610;1.440;2022-09-01T16:40:46;28.70;96.00
35635;DHT22;21757;43.610;1.440;2022-09-01T16:43:28;28.70;96.00
35635;DHT22;21757;43.610;1.440;2022-09-01T16:46:26;28.60;95.90
35635;DHT22;21757;43.610;1.440;2022-09-01T16:51:58;28.70;95.70
35635;DHT22;21757;43.610;1.440;2022-09-01T16:54:48;28.50;95.50
35635;DHT22;21757;43.610;1.440;2022-09-01T17:00:08;28.50;95.30
35635;DHT22;21757;43.610;1.440;2022-09-01T17:02:50;28.60;95.40
35635;DHT22;21757;43.610;1.440;2022-09-01T17:05:33;28.60;95.30
35635;DHT22;21757;43.610;1.440;2022-09-01T17:08:24;28.50;95.00
35635;DHT22;21757;43.610;1.440;2022-09-01T17:11:26;28.40;95.10